sensor_id;sensor_type;location;lat;lon;timestamp;pressure;altitude;pressure_sealevel;temperature;humidity
7376;BME280;3728;42.266;24.944;2022-11-25T00:01:32;99161.59;;;10.42;68.53
7376;BME280;3728;42.266;24.944;2022-11-25T00:04:00;99157.28;;;10.38;68.92
7376;BME280;3728;42.266;24.944;2022-11-25T00:06:30;99165.72;;;10.35;68.79
7376;BME280;3728;42.266;24.944;2022-11-25T00:09:02;99166.00;;;10.16;70.02
7376;BME280;3728;42.266;24.944;2022-11-25T00:11:37;99165.56;;;10.22;68.87
7376;BME280;3728;42.266;24.944;2022-11-25T00:14:07;99166.31;;;10.14;69.52
7376;BME280;3728;42.266;24.944;2022-11-25T00:16:38;99168.94;;;10.14;69.63
7376;BME280;3728;42.266;24.944;2022-11-25T00:19:13;99170.31;;;10.12;69.97
7376;BME280;3728;42.266;24.944;2022-11-25T00:21:40;99162.38;;;9.95;70.20
7376;BME280;3728;42.266;24.944;2022-11-25T00:24:09;99166.84;;;9.94;70.67
7376;BME280;3728;42.266;24.944;2022-11-25T00:26:40;99169.09;;;10.18;69.05
7376;BME280;3728;42.266;24.944;2022-11-25T00:29:09;99165.41;;;10.27;68.71
7376;BME280;3728;42.266;24.944;2022-11-25T00:31:40;99168.19;;;10.31;68.90
7376;BME280;3728;42.266;24.944;2022-11-25T00:34:11;99168.81;;;10.19;68.61
7376;BME280;3728;42.266;24.944;2022-11-25T00:36:39;99174.03;;;10.19;68.72
7376;BME280;3728;42.266;24.944;2022-11-25T00:39:11;99175.00;;;9.93;69.60
7376;BME280;3728;42.266;24.944;2022-11-25T00:41:40;99173.81;;;10.07;69.70
7376;BME280;3728;42.266;24.944;2022-11-25T00:44:27;99171.91;;;10.47;67.23
7376;BME280;3728;42.266;24.944;2022-11-25T00:47:14;99180.47;;;10.13;68.84
7376;BME280;3728;42.266;24.944;2022-11-25T00:49:47;99178.22;;;10.29;68.55
7376;BME280;3728;42.266;24.944;2022-11-25T00:52:20;99171.88;;;10.21;68.61
7376;BME280;3728;42.266;24.944;2022-11-25T00:54:50;99163.88;;;10.26;68.34
7376;BME280;3728;42.266;24.944;2022-11-25T00:57:20;99170.97;;;10.35;67.40
7376;BME280;3728;42.266;24.944;2022-11-25T00:59:49;99172.47;;;10.18;69.01
7376;BME280;3728;42.266;24.944;2022-11-25T01:02:19;99173.50;;;10.00;69.54
7376;BME280;3728;42.266;24.944;2022-11-25T01:04:47;99169.50;;;10.03;69.66
7376;BME280;3728;42.266;24.944;2022-11-25T01:07:15;99169.25;;;10.21;68.43
7376;BME280;3728;42.266;24.944;2022-11-25T01:09:43;99168.28;;;10.09;69.74
7376;BME280;3728;42.266;24.944;2022-11-25T01:12:10;99176.81;;;10.49;67.66
7376;BME280;3728;42.266;24.944;2022-11-25T01:14:38;99173.75;;;10.38;67.81
7376;BME280;3728;42.266;24.944;2022-11-25T01:17:06;99165.91;;;10.47;66.72
7376;BME280;3728;42.266;24.944;2022-11-25T01:19:34;99171.88;;;10.21;68.13
7376;BME280;3728;42.266;24.944;2022-11-25T01:22:07;99179.41;;;10.23;68.34
7376;BME280;3728;42.266;24.944;2022-11-25T01:24:35;99172.66;;;10.22;68.32
7376;BME280;3728;42.266;24.944;2022-11-25T01:27:03;99173.19;;;10.10;69.06
7376;BME280;3728;42.266;24.944;2022-11-25T01:29:31;99171.41;;;10.28;68.26
7376;BME280;3728;42.266;24.944;2022-11-25T01:31:58;99174.31;;;10.18;68.68
7376;BME280;3728;42.266;24.944;2022-11-25T01:34:26;99178.03;;;10.25;68.20
7376;BME280;3728;42.266;24.944;2022-11-25T01:36:57;99175.28;;;10.22;67.86
7376;BME280;3728;42.266;24.944;2022-11-25T01:39:25;99178.31;;;10.15;69.42
7376;BME280;3728;42.266;24.944;2022-11-25T01:41:59;99166.38;;;10.32;67.71
7376;BME280;3728;42.266;24.944;2022-11-25T01:44:29;99164.50;;;10.23;67.51
7376;BME280;3728;42.266;24.944;2022-11-25T01:49:39;99163.09;;;10.26;67.80
7376;BME280;3728;42.266;24.944;2022-11-25T01:52:34;99165.59;;;10.31;68.03
7376;BME280;3728;42.266;24.944;2022-11-25T01:55:08;99168.63;;;10.24;68.20
7376;BME280;3728;42.266;24.944;2022-11-25T01:57:44;99182.25;;;10.04;68.98
7376;BME280;3728;42.266;24.944;2022-11-25T02:00:17;99178.22;;;10.29;67.49
7376;BME280;3728;42.266;24.944;2022-11-25T02:02:49;99181.38;;;10.17;68.02
7376;BME280;3728;42.266;24.944;2022-11-25T02:05:34;99174.34;;;10.26;67.37
7376;BME280;3728;42.266;24.944;2022-11-25T02:08:08;99177.16;;;10.47;66.75
7376;BME280;3728;42.266;24.944;2022-11-25T02:10:37;99182.69;;;10.46;66.96
7376;BME280;3728;42.266;24.944;2022-11-25T02:13:05;99184.69;;;10.32;67.62
7376;BME280;3728;42.266;24.944;2022-11-25T02:15:35;99188.50;;;10.25;68.44
7376;BME280;3728;42.266;24.944;2022-11-25T02:18:03;99188.19;;;10.18;68.29
7376;BME280;3728;42.266;24.944;2022-11-25T02:20:30;99189.97;;;10.09;69.30
7376;BME280;3728;42.266;24.944;2022-11-25T02:23:02;99196.22;;;10.30;68.62
7376;BME280;3728;42.266;24.944;2022-11-25T02:25:53;99199.63;;;10.40;67.34
7376;BME280;3728;42.266;24.944;2022-11-25T02:28:24;99194.91;;;10.11;68.91
7376;BME280;3728;42.266;24.944;2022-11-25T02:30:53;99189.81;;;10.06;69.13
7376;BME280;3728;42.266;24.944;2022-11-25T02:33:22;99204.66;;;10.27;67.87
7376;BME280;3728;42.266;24.944;2022-11-25T02:35:55;99197.59;;;10.28;67.18
7376;BME280;3728;42.266;24.944;2022-11-25T02:38:52;99200.22;;;10.37;66.83
7376;BME280;3728;42.266;24.944;2022-11-25T02:44:02;99192.97;;;10.25;67.41
7376;BME280;3728;42.266;24.944;2022-11-25T02:46:30;99194.53;;;10.35;66.92
7376;BME280;3728;42.266;24.944;2022-11-25T02:49:00;99185.25;;;10.11;68.30
7376;BME280;3728;42.266;24.944;2022-11-25T02:51:39;99195.13;;;10.23;67.43
7376;BME280;3728;42.266;24.944;2022-11-25T02:54:11;99190.66;;;10.32;67.23
7376;BME280;3728;42.266;24.944;2022-11-25T02:56:39;99194.81;;;10.24;67.39
7376;BME280;3728;42.266;24.944;2022-11-25T02:59:08;99185.56;;;10.18;67.80
7376;BME280;3728;42.266;24.944;2022-11-25T03:01:37;99198.88;;;10.08;68.76
7376;BME280;3728;42.266;24.944;2022-11-25T03:04:07;99190.75;;;10.10;68.75
7376;BME280;3728;42.266;24.944;2022-11-25T03:06:35;99196.03;;;10.18;68.44
7376;BME280;3728;42.266;24.944;2022-11-25T03:09:03;99200.66;;;10.21;67.77
7376;BME280;3728;42.266;24.944;2022-11-25T03:11:30;99199.75;;;10.35;67.40
7376;BME280;3728;42.266;24.944;2022-11-25T03:14:18;99202.50;;;10.21;68.51
7376;BME280;3728;42.266;24.944;2022-11-25T03:16:46;99199.28;;;10.32;68.08
7376;BME280;3728;42.266;24.944;2022-11-25T03:19:14;99199.88;;;10.21;67.28
7376;BME280;3728;42.266;24.944;2022-11-25T03:21:41;99199.31;;;9.93;69.64
7376;BME280;3728;42.266;24.944;2022-11-25T03:24:09;99196.72;;;10.10;69.46
7376;BME280;3728;42.266;24.944;2022-11-25T03:26:36;99195.19;;;10.01;69.00
7376;BME280;3728;42.266;24.944;2022-11-25T03:29:04;99199.25;;;10.15;67.56
7376;BME280;3728;42.266;24.944;2022-11-25T03:31:33;99206.81;;;10.25;67.89
7376;BME280;3728;42.266;24.944;2022-11-25T03:34:01;99213.47;;;10.32;67.01
7376;BME280;3728;42.266;24.944;2022-11-25T03:36:29;99205.75;;;10.26;67.26
7376;BME280;3728;42.266;24.944;2022-11-25T03:38:56;99211.03;;;10.04;67.89
7376;BME280;3728;42.266;24.944;2022-11-25T03:41:24;99215.41;;;10.17;68.13
7376;BME280;3728;42.266;24.944;2022-11-25T03:43:51;99214.69;;;9.86;68.77
7376;BME280;3728;42.266;24.944;2022-11-25T03:46:19;99209.88;;;10.19;67.04
7376;BME280;3728;42.266;24.944;2022-11-25T03:48:47;99213.53;;;10.09;67.53
7376;BME280;3728;42.266;24.944;2022-11-25T03:51:14;99211.97;;;10.08;68.06
7376;BME280;3728;42.266;24.944;2022-11-25T03:53:43;99210.22;;;10.35;66.41
7376;BME280;3728;42.266;24.944;2022-11-25T03:56:10;99208.19;;;10.14;67.49
7376;BME280;3728;42.266;24.944;2022-11-25T03:58:38;99209.31;;;10.30;66.35
7376;BME280;3728;42.266;24.944;2022-11-25T04:01:07;99203.44;;;10.25;66.26
7376;BME280;3728;42.266;24.944;2022-11-25T04:03:35;99207.19;;;10.10;67.43
7376;BME280;3728;42.266;24.944;2022-11-25T04:06:03;99209.44;;;10.17;67.60
7376;BME280;3728;42.266;24.944;2022-11-25T04:08:31;99206.44;;;10.10;67.67
7376;BME280;3728;42.266;24.944;2022-11-25T04:10:58;99219.66;;;10.05;67.92
7376;BME280;3728;42.266;24.944;2022-11-25T04:13:30;99222.44;;;9.69;69.14
7376;BME280;3728;42.266;24.944;2022-11-25T04:15:57;99220.28;;;9.71;69.39
7376;BME280;3728;42.266;24.944;2022-11-25T04:18:25;99222.97;;;9.80;69.07
7376;BME280;3728;42.266;24.944;2022-11-25T04:20:56;99233.66;;;10.00;68.46
7376;BME280;3728;42.266;24.944;2022-11-25T04:23:24;99232.66;;;9.88;69.41
7376;BME280;3728;42.266;24.944;2022-11-25T04:26:00;99239.94;;;9.91;68.70
7376;BME280;3728;42.266;24.944;2022-11-25T04:28:38;99235.28;;;9.88;68.99
7376;BME280;3728;42.266;24.944;2022-11-25T04:31:07;99236.31;;;9.78;69.27
7376;BME280;3728;42.266;24.944;2022-11-25T04:33:38;99230.50;;;9.81;69.52
7376;BME280;3728;42.266;24.944;2022-11-25T04:36:06;99243.31;;;9.91;68.87
7376;BME280;3728;42.266;24.944;2022-11-25T04:38:35;99255.19;;;9.97;68.56
7376;BME280;3728;42.266;24.944;2022-11-25T04:41:04;99251.69;;;10.10;67.39
7376;BME280;3728;42.266;24.944;2022-11-25T04:43:37;99246.69;;;9.92;68.17
7376;BME280;3728;42.266;24.944;2022-11-25T04:46:15;99247.47;;;9.92;68.02
7376;BME280;3728;42.266;24.944;2022-11-25T04:48:48;99254.06;;;9.90;68.48
7376;BME280;3728;42.266;24.944;2022-11-25T04:51:17;99255.09;;;9.80;69.48
7376;BME280;3728;42.266;24.944;2022-11-25T04:53:48;99260.53;;;10.14;67.55
7376;BME280;3728;42.266;24.944;2022-11-25T04:56:18;99249.34;;;10.00;66.79
7376;BME280;3728;42.266;24.944;2022-11-25T04:58:49;99268.09;;;9.94;67.95
7376;BME280;3728;42.266;24.944;2022-11-25T05:01:39;99276.44;;;10.04;68.04
7376;BME280;3728;42.266;24.944;2022-11-25T05:04:27;99279.97;;;10.00;68.09
7376;BME280;3728;42.266;24.944;2022-11-25T05:06:54;99276.63;;;9.77;68.75
7376;BME280;3728;42.266;24.944;2022-11-25T05:09:23;99282.47;;;10.05;67.21
7376;BME280;3728;42.266;24.944;2022-11-25T05:12:23;99277.38;;;10.08;66.52
7376;BME280;3728;42.266;24.944;2022-11-25T05:14:52;99281.56;;;10.09;66.93
7376;BME280;3728;42.266;24.944;2022-11-25T05:17:24;99275.53;;;9.78;68.48
7376;BME280;3728;42.266;24.944;2022-11-25T05:19:54;99278.81;;;9.84;67.19
7376;BME280;3728;42.266;24.944;2022-11-25T05:22:30;99283.16;;;9.88;67.82
7376;BME280;3728;42.266;24.944;2022-11-25T05:25:00;99299.34;;;9.99;67.30
7376;BME280;3728;42.266;24.944;2022-11-25T05:27:28;99300.38;;;9.89;66.63
7376;BME280;3728;42.266;24.944;2022-11-25T05:30:01;99305.78;;;9.93;67.75
7376;BME280;3728;42.266;24.944;2022-11-25T05:32:28;99295.81;;;10.03;66.62
7376;BME280;3728;42.266;24.944;2022-11-25T05:34:58;99306.78;;;10.05;65.97
7376;BME280;3728;42.266;24.944;2022-11-25T05:37:25;99311.59;;;9.90;65.51
7376;BME280;3728;42.266;24.944;2022-11-25T05:40:00;99315.47;;;9.92;66.94
7376;BME280;3728;42.266;24.944;2022-11-25T05:42:33;99322.22;;;10.15;65.66
7376;BME280;3728;42.266;24.944;2022-11-25T05:45:03;99329.94;;;10.20;64.58
7376;BME280;3728;42.266;24.944;2022-11-25T05:47:32;99337.22;;;10.23;65.06
7376;BME280;3728;42.266;24.944;2022-11-25T05:50:01;99342.50;;;10.10;65.57
7376;BME280;3728;42.266;24.944;2022-11-25T05:52:29;99349.94;;;9.94;66.62
7376;BME280;3728;42.266;24.944;2022-11-25T05:54:59;99350.72;;;9.95;66.09
7376;BME280;3728;42.266;24.944;2022-11-25T05:57:26;99362.28;;;9.94;66.30
7376;BME280;3728;42.266;24.944;2022-11-25T05:59:59;99367.59;;;10.11;65.89
7376;BME280;3728;42.266;24.944;2022-11-25T06:02:50;99359.63;;;10.16;65.66
7376;BME280;3728;42.266;24.944;2022-11-25T06:05:20;99356.22;;;10.38;64.38
7376;BME280;3728;42.266;24.944;2022-11-25T06:07:49;99370.41;;;10.14;65.37
7376;BME280;3728;42.266;24.944;2022-11-25T06:10:18;99378.25;;;10.14;65.93
7376;BME280;3728;42.266;24.944;2022-11-25T06:12:47;99384.19;;;10.06;66.30
7376;BME280;3728;42.266;24.944;2022-11-25T06:15:14;99393.63;;;10.38;64.56
7376;BME280;3728;42.266;24.944;2022-11-25T06:17:42;99397.53;;;10.18;65.67
7376;BME280;3728;42.266;24.944;2022-11-25T06:20:16;99401.34;;;10.12;66.22
7376;BME280;3728;42.266;24.944;2022-11-25T06:22:44;99396.16;;;10.21;65.80
7376;BME280;3728;42.266;24.944;2022-11-25T06:25:13;99398.91;;;10.47;64.84
7376;BME280;3728;42.266;24.944;2022-11-25T06:27:41;99406.19;;;10.27;66.22
7376;BME280;3728;42.266;24.944;2022-11-25T06:30:29;99421.53;;;10.43;65.52
7376;BME280;3728;42.266;24.944;2022-11-25T06:33:14;99408.81;;;10.27;65.74
7376;BME280;3728;42.266;24.944;2022-11-25T06:35:44;99406.66;;;10.60;64.58
7376;BME280;3728;42.266;24.944;2022-11-25T06:38:11;99406.44;;;10.48;65.12
7376;BME280;3728;42.266;24.944;2022-11-25T06:40:39;99418.00;;;10.47;66.04
7376;BME280;3728;42.266;24.944;2022-11-25T06:43:06;99416.41;;;10.38;66.26
7376;BME280;3728;42.266;24.944;2022-11-25T06:45:34;99417.47;;;10.37;66.46
7376;BME280;3728;42.266;24.944;2022-11-25T06:48:01;99430.00;;;10.48;65.75
7376;BME280;3728;42.266;24.944;2022-11-25T06:50:29;99426.34;;;10.58;65.22
7376;BME280;3728;42.266;24.944;2022-11-25T06:52:59;99437.72;;;10.53;65.74
7376;BME280;3728;42.266;24.944;2022-11-25T06:55:28;99443.25;;;10.43;66.50
7376;BME280;3728;42.266;24.944;2022-11-25T06:57:55;99439.84;;;10.43;66.55
7376;BME280;3728;42.266;24.944;2022-11-25T07:00:45;99439.94;;;10.60;66.31
7376;BME280;3728;42.266;24.944;2022-11-25T07:03:13;99434.66;;;10.51;65.40
7376;BME280;3728;42.266;24.944;2022-11-25T07:05:44;99437.81;;;10.40;66.24
7376;BME280;3728;42.266;24.944;2022-11-25T07:08:11;99437.34;;;10.38;66.44
7376;BME280;3728;42.266;24.944;2022-11-25T07:10:38;99442.94;;;10.45;66.31
7376;BME280;3728;42.266;24.944;2022-11-25T07:13:06;99453.78;;;10.60;65.07
7376;BME280;3728;42.266;24.944;2022-11-25T07:15:33;99449.88;;;10.49;64.98
7376;BME280;3728;42.266;24.944;2022-11-25T07:18:01;99457.28;;;10.47;65.62
7376;BME280;3728;42.266;24.944;2022-11-25T07:20:32;99463.41;;;10.43;65.80
7376;BME280;3728;42.266;24.944;2022-11-25T07:22:59;99460.13;;;10.59;64.68
7376;BME280;3728;42.266;24.944;2022-11-25T07:25:27;99464.78;;;10.40;65.36
7376;BME280;3728;42.266;24.944;2022-11-25T07:27:56;99468.69;;;10.51;65.84
7376;BME280;3728;42.266;24.944;2022-11-25T07:30:24;99462.66;;;10.51;64.69
7376;BME280;3728;42.266;24.944;2022-11-25T07:33:11;99469.06;;;10.36;66.13
7376;BME280;3728;42.266;24.944;2022-11-25T07:35:42;99479.81;;;10.35;66.82
7376;BME280;3728;42.266;24.944;2022-11-25T07:38:10;99457.63;;;10.32;66.63
7376;BME280;3728;42.266;24.944;2022-11-25T07:40:37;99472.44;;;10.37;66.52
7376;BME280;3728;42.266;24.944;2022-11-25T07:43:07;99479.41;;;10.41;67.06
7376;BME280;3728;42.266;24.944;2022-11-25T07:45:37;99488.16;;;10.37;65.95
7376;BME280;3728;42.266;24.944;2022-11-25T07:48:06;99502.94;;;10.63;66.47
7376;BME280;3728;42.266;24.944;2022-11-25T07:50:34;99499.47;;;10.46;66.66
7376;BME280;3728;42.266;24.944;2022-11-25T07:53:01;99494.78;;;10.65;65.21
7376;BME280;3728;42.266;24.944;2022-11-25T07:55:30;99500.75;;;10.57;66.59
7376;BME280;3728;42.266;24.944;2022-11-25T07:57:58;99505.81;;;10.53;66.89
7376;BME280;3728;42.266;24.944;2022-11-25T08:00:25;99498.78;;;10.62;66.29
7376;BME280;3728;42.266;24.944;2022-11-25T08:02:53;99509.91;;;10.68;66.26
7376;BME280;3728;42.266;24.944;2022-11-25T08:05:20;99510.16;;;10.88;65.06
7376;BME280;3728;42.266;24.944;2022-11-25T08:07:48;99524.47;;;11.22;63.34
7376;BME280;3728;42.266;24.944;2022-11-25T08:10:15;99522.25;;;11.37;62.66
7376;BME280;3728;42.266;24.944;2022-11-25T08:12:43;99522.78;;;11.74;61.28
7376;BME280;3728;42.266;24.944;2022-11-25T08:15:10;99513.03;;;11.65;61.38
7376;BME280;3728;42.266;24.944;2022-11-25T08:17:38;99528.53;;;11.93;59.60
7376;BME280;3728;42.266;24.944;2022-11-25T08:20:08;99524.66;;;11.90;59.26
7376;BME280;3728;42.266;24.944;2022-11-25T08:22:36;99526.97;;;11.92;59.99
7376;BME280;3728;42.266;24.944;2022-11-25T08:25:04;99535.81;;;12.13;58.76
7376;BME280;3728;42.266;24.944;2022-11-25T08:27:32;99533.03;;;12.26;58.01
7376;BME280;3728;42.266;24.944;2022-11-25T08:29:59;99526.53;;;12.32;58.25
7376;BME280;3728;42.266;24.944;2022-11-25T08:32:27;99541.47;;;12.66;56.62
7376;BME280;3728;42.266;24.944;2022-11-25T08:34:54;99528.78;;;12.68;56.06
7376;BME280;3728;42.266;24.944;2022-11-25T08:37:22;99526.88;;;12.86;55.65
7376;BME280;3728;42.266;24.944;2022-11-25T08:39:50;99531.38;;;12.85;55.17
7376;BME280;3728;42.266;24.944;2022-11-25T08:42:19;99523.75;;;13.01;54.65
7376;BME280;3728;42.266;24.944;2022-11-25T08:44:51;99531.91;;;13.17;54.84
7376;BME280;3728;42.266;24.944;2022-11-25T08:47:20;99523.63;;;13.35;52.44
7376;BME280;3728;42.266;24.944;2022-11-25T08:49:51;99530.75;;;13.35;52.54
7376;BME280;3728;42.266;24.944;2022-11-25T08:52:20;99531.81;;;13.34;52.62
7376;BME280;3728;42.266;24.944;2022-11-25T08:54:48;99523.00;;;13.59;51.56
7376;BME280;3728;42.266;24.944;2022-11-25T08:57:16;99529.72;;;13.77;50.31
7376;BME280;3728;42.266;24.944;2022-11-25T08:59:43;99521.66;;;13.82;50.04
7376;BME280;3728;42.266;24.944;2022-11-25T09:02:14;99519.31;;;13.60;50.61
7376;BME280;3728;42.266;24.944;2022-11-25T09:04:42;99517.97;;;13.54;50.44
7376;BME280;3728;42.266;24.944;2022-11-25T09:07:10;99527.47;;;13.67;50.53
7376;BME280;3728;42.266;24.944;2022-11-25T09:09:38;99523.25;;;13.75;50.25
7376;BME280;3728;42.266;24.944;2022-11-25T09:12:07;99532.81;;;14.00;48.93
7376;BME280;3728;42.266;24.944;2022-11-25T09:14:35;99526.03;;;13.99;48.46
7376;BME280;3728;42.266;24.944;2022-11-25T09:17:10;99520.94;;;13.94;49.06
7376;BME280;3728;42.266;24.944;2022-11-25T09:19:38;99525.13;;;14.27;48.30
7376;BME280;3728;42.266;24.944;2022-11-25T09:22:06;99533.91;;;14.19;47.46
7376;BME280;3728;42.266;24.944;2022-11-25T09:24:34;99523.69;;;14.38;47.74
7376;BME280;3728;42.266;24.944;2022-11-25T09:27:02;99534.53;;;14.16;47.94
7376;BME280;3728;42.266;24.944;2022-11-25T09:29:29;99529.59;;;14.15;48.03
7376;BME280;3728;42.266;24.944;2022-11-25T09:31:59;99530.69;;;13.93;47.82
7376;BME280;3728;42.266;24.944;2022-11-25T09:34:27;99543.84;;;13.73;47.54
7376;BME280;3728;42.266;24.944;2022-11-25T09:36:54;99536.00;;;13.35;48.76
7376;BME280;3728;42.266;24.944;2022-11-25T09:39:22;99533.91;;;13.20;49.08
7376;BME280;3728;42.266;24.944;2022-11-25T09:42:10;99542.41;;;13.17;48.83
7376;BME280;3728;42.266;24.944;2022-11-25T09:45:21;99533.31;;;13.43;48.18
7376;BME280;3728;42.266;24.944;2022-11-25T09:48:36;99530.41;;;13.36;48.57
7376;BME280;3728;42.266;24.944;2022-11-25T09:51:35;99529.72;;;14.18;46.16
7376;BME280;3728;42.266;24.944;2022-11-25T09:54:20;99539.28;;;14.23;46.13
7376;BME280;3728;42.266;24.944;2022-11-25T09:57:02;99536.59;;;14.11;46.67
7376;BME280;3728;42.266;24.944;2022-11-25T10:00:13;99547.13;;;14.11;46.73
7376;BME280;3728;42.266;24.944;2022-11-25T10:05:58;99524.00;;;14.37;44.97
7376;BME280;3728;42.266;24.944;2022-11-25T10:08:37;99513.69;;;14.44;45.61
7376;BME280;3728;42.266;24.944;2022-11-25T10:14:07;99513.44;;;14.58;45.68
7376;BME280;3728;42.266;24.944;2022-11-25T10:16:47;99505.28;;;14.95;45.15
7376;BME280;3728;42.266;24.944;2022-11-25T10:22:50;99499.53;;;15.18;42.39
7376;BME280;3728;42.266;24.944;2022-11-25T10:25:24;99510.66;;;15.35;43.24
7376;BME280;3728;42.266;24.944;2022-11-25T10:28:22;99511.41;;;15.36;42.09
7376;BME280;3728;42.266;24.944;2022-11-25T10:31:06;99510.84;;;14.94;42.55
7376;BME280;3728;42.266;24.944;2022-11-25T10:33:50;99517.91;;;15.02;42.81
7376;BME280;3728;42.266;24.944;2022-11-25T10:36:32;99507.56;;;14.97;42.47
7376;BME280;3728;42.266;24.944;2022-11-25T10:39:06;99511.06;;;15.01;42.69
7376;BME280;3728;42.266;24.944;2022-11-25T10:44:35;99511.34;;;15.44;41.67
7376;BME280;3728;42.266;24.944;2022-11-25T10:56:09;99517.44;;;16.40;39.54
7376;BME280;3728;42.266;24.944;2022-11-25T10:58:39;99511.31;;;16.36;39.55
7376;BME280;3728;42.266;24.944;2022-11-25T11:01:21;99513.88;;;16.48;39.39
7376;BME280;3728;42.266;24.944;2022-11-25T11:04:05;99524.69;;;16.43;38.65
7376;BME280;3728;42.266;24.944;2022-11-25T11:06:42;99501.94;;;16.11;39.00
7376;BME280;3728;42.266;24.944;2022-11-25T11:09:36;99508.75;;;16.12;39.84
7376;BME280;3728;42.266;24.944;2022-11-25T11:15:12;99507.03;;;16.75;38.46
7376;BME280;3728;42.266;24.944;2022-11-25T11:17:44;99511.75;;;16.81;37.96
7376;BME280;3728;42.266;24.944;2022-11-25T11:22:55;99501.75;;;17.22;36.74
7376;BME280;3728;42.266;24.944;2022-11-25T11:25:39;99504.44;;;17.41;37.32
7376;BME280;3728;42.266;24.944;2022-11-25T11:31:17;99500.25;;;17.55;36.09
7376;BME280;3728;42.266;24.944;2022-11-25T11:42:25;99513.63;;;17.12;36.69
7376;BME280;3728;42.266;24.944;2022-11-25T11:48:28;99508.97;;;17.25;37.62
7376;BME280;3728;42.266;24.944;2022-11-25T11:54:04;99507.63;;;17.31;37.31
7376;BME280;3728;42.266;24.944;2022-11-25T11:56:46;99511.38;;;17.30;37.74
7376;BME280;3728;42.266;24.944;2022-11-25T11:59:51;99507.38;;;17.36;35.82
7376;BME280;3728;42.266;24.944;2022-11-25T12:05:25;99513.97;;;17.45;36.73
7376;BME280;3728;42.266;24.944;2022-11-25T12:10:50;99507.84;;;17.41;36.41
7376;BME280;3728;42.266;24.944;2022-11-25T12:16:08;99518.53;;;17.45;36.31
7376;BME280;3728;42.266;24.944;2022-11-25T12:19:19;99500.19;;;17.52;36.74
7376;BME280;3728;42.266;24.944;2022-11-25T12:25:22;99497.19;;;17.38;37.45
7376;BME280;3728;42.266;24.944;2022-11-25T12:28:03;99502.75;;;17.33;37.88
7376;BME280;3728;42.266;24.944;2022-11-25T12:30:45;99493.78;;;17.72;36.68
7376;BME280;3728;42.266;24.944;2022-11-25T12:34:08;99480.56;;;17.91;36.98
7376;BME280;3728;42.266;24.944;2022-11-25T12:36:45;99497.22;;;17.92;36.13
7376;BME280;3728;42.266;24.944;2022-11-25T12:39:49;99501.16;;;18.59;33.71
7376;BME280;3728;42.266;24.944;2022-11-25T12:42:27;99521.19;;;19.24;32.08
7376;BME280;3728;42.266;24.944;2022-11-25T12:45:09;99526.38;;;19.66;31.57
7376;BME280;3728;42.266;24.944;2022-11-25T12:47:45;99534.22;;;20.48;31.51
7376;BME280;3728;42.266;24.944;2022-11-25T12:50:21;99539.81;;;20.80;31.36
7376;BME280;3728;42.266;24.944;2022-11-25T12:54:02;99529.41;;;20.64;29.86
7376;BME280;3728;42.266;24.944;2022-11-25T13:00:23;99553.31;;;21.48;29.47
7376;BME280;3728;42.266;24.944;2022-11-25T13:06:37;99555.97;;;21.45;28.59
7376;BME280;3728;42.266;24.944;2022-11-25T13:12:56;99562.78;;;20.91;28.67
7376;BME280;3728;42.266;24.944;2022-11-25T13:15:45;99559.75;;;20.96;28.67
7376;BME280;3728;42.266;24.944;2022-11-25T13:18:18;99574.75;;;21.11;28.55
7376;BME280;3728;42.266;24.944;2022-11-25T13:20:52;99564.75;;;21.01;28.53
7376;BME280;3728;42.266;24.944;2022-11-25T13:23:23;99565.50;;;21.02;29.23
7376;BME280;3728;42.266;24.944;2022-11-25T13:26:32;99571.09;;;20.86;29.23
7376;BME280;3728;42.266;24.944;2022-11-25T13:28:59;99565.75;;;20.46;29.29
7376;BME280;3728;42.266;24.944;2022-11-25T13:32:27;99576.16;;;20.98;28.60
7376;BME280;3728;42.266;24.944;2022-11-25T13:37:52;99602.13;;;20.09;29.38
7376;BME280;3728;42.266;24.944;2022-11-25T13:42:57;99585.84;;;19.35;34.28
7376;BME280;3728;42.266;24.944;2022-11-25T13:45:27;99598.69;;;18.65;35.39
7376;BME280;3728;42.266;24.944;2022-11-25T13:48:24;99619.69;;;18.01;36.69
7376;BME280;3728;42.266;24.944;2022-11-25T13:51:15;99596.84;;;17.30;37.51
7376;BME280;3728;42.266;24.944;2022-11-25T13:53:56;99603.25;;;17.14;38.34
7376;BME280;3728;42.266;24.944;2022-11-25T13:56:36;99608.00;;;16.92;38.73
7376;BME280;3728;42.266;24.944;2022-11-25T14:04:15;99616.81;;;16.69;39.60
7376;BME280;3728;42.266;24.944;2022-11-25T14:07:06;99624.94;;;16.36;40.11
7376;BME280;3728;42.266;24.944;2022-11-25T14:27:49;99637.41;;;14.20;44.85
7376;BME280;3728;42.266;24.944;2022-11-25T14:30:31;99641.09;;;13.98;45.05
7376;BME280;3728;42.266;24.944;2022-11-25T14:33:02;99646.34;;;13.69;45.89
7376;BME280;3728;42.266;24.944;2022-11-25T14:35:36;99651.03;;;13.55;46.44
7376;BME280;3728;42.266;24.944;2022-11-25T14:38:22;99657.34;;;13.25;47.26
7376;BME280;3728;42.266;24.944;2022-11-25T14:41:04;99646.56;;;13.09;47.92
7376;BME280;3728;42.266;24.944;2022-11-25T14:43:40;99638.00;;;13.03;48.07
7376;BME280;3728;42.266;24.944;2022-11-25T14:46:19;99647.66;;;12.74;49.13
7376;BME280;3728;42.266;24.944;2022-11-25T14:48:55;99640.81;;;12.81;48.92
7376;BME280;3728;42.266;24.944;2022-11-25T14:51:45;99656.28;;;12.66;48.83
7376;BME280;3728;42.266;24.944;2022-11-25T14:54:16;99660.75;;;12.31;50.52
7376;BME280;3728;42.266;24.944;2022-11-25T14:56:45;99667.56;;;12.41;49.82
7376;BME280;3728;42.266;24.944;2022-11-25T14:59:14;99657.84;;;12.41;49.71
7376;BME280;3728;42.266;24.944;2022-11-25T15:01:53;99664.13;;;12.23;50.38
7376;BME280;3728;42.266;24.944;2022-11-25T15:04:23;99672.19;;;12.26;51.05
7376;BME280;3728;42.266;24.944;2022-11-25T15:06:55;99670.16;;;12.23;50.75
7376;BME280;3728;42.266;24.944;2022-11-25T15:09:31;99670.13;;;12.06;51.02
7376;BME280;3728;42.266;24.944;2022-11-25T15:12:06;99668.88;;;11.95;51.85
7376;BME280;3728;42.266;24.944;2022-11-25T15:14:40;99675.09;;;12.08;51.67
7376;BME280;3728;42.266;24.944;2022-11-25T15:17:25;99669.53;;;12.18;51.06
7376;BME280;3728;42.266;24.944;2022-11-25T15:20:08;99679.25;;;12.09;51.35
7376;BME280;3728;42.266;24.944;2022-11-25T15:22:38;99669.91;;;11.86;52.07
7376;BME280;3728;42.266;24.944;2022-11-25T15:25:13;99681.91;;;11.78;52.25
7376;BME280;3728;42.266;24.944;2022-11-25T15:27:44;99684.09;;;11.85;52.29
7376;BME280;3728;42.266;24.944;2022-11-25T15:30:26;99683.34;;;11.84;52.00